createdAt,value
2018-07-28T00:02:20.090Z,21.97
2018-07-28T00:04:48.261Z,22.00
2018-07-28T00:07:16.423Z,21.99
2018-07-28T00:09:44.601Z,21.98
2018-07-28T00:12:12.740Z,22.02
2018-07-28T00:14:40.868Z,21.93
2018-07-28T00:17:09.088Z,21.92
2018-07-28T00:19:37.194Z,21.89
2018-07-28T00:22:05.368Z,21.83
2018-07-28T00:24:33.509Z,21.82
2018-07-28T00:27:01.634Z,21.77
2018-07-28T00:29:29.765Z,21.68
2018-07-28T00:31:57.936Z,21.62
2018-07-28T00:34:26.111Z,21.60
2018-07-28T00:36:54.268Z,21.64
2018-07-28T00:39:22.417Z,21.55
2018-07-28T00:41:50.533Z,21.61
2018-07-28T00:44:18.704Z,21.65
2018-07-28T00:46:46.784Z,21.59
2018-07-28T00:49:14.877Z,21.55
2018-07-28T00:51:43.032Z,21.51
2018-07-28T00:54:11.178Z,21.47
2018-07-28T00:56:39.312Z,21.43
2018-07-28T00:59:07.475Z,21.38
2018-07-28T01:01:35.555Z,21.33
2018-07-28T01:04:03.696Z,21.30
2018-07-28T01:06:31.825Z,21.23
2018-07-28T01:08:59.978Z,21.20
2018-07-28T01:11:28.120Z,21.19
2018-07-28T01:13:56.270Z,21.15
2018-07-28T01:16:24.399Z,21.15
2018-07-28T01:18:52.519Z,21.08
2018-07-28T01:21:20.657Z,21.06
2018-07-28T01:23:48.908Z,21.08
2018-07-28T01:26:17.068Z,21.08
2018-07-28T01:28:49.370Z,21.09
2018-07-28T01:31:17.517Z,21.11
2018-07-28T01:33:45.739Z,21.12
2018-07-28T01:36:13.901Z,20.99
2018-07-28T01:38:42.024Z,20.95
2018-07-28T01:41:10.156Z,20.91
2018-07-28T01:43:38.275Z,20.91
2018-07-28T01:46:06.378Z,20.83
2018-07-28T01:48:34.487Z,20.78
2018-07-28T01:51:02.661Z,20.75
2018-07-28T01:53:30.815Z,20.74
2018-07-28T01:55:58.980Z,20.69
2018-07-28T01:58:27.139Z,20.72
2018-07-28T02:00:55.264Z,20.69
2018-07-28T02:03:23.430Z,20.73
2018-07-28T02:05:51.601Z,20.68
2018-07-28T02:08:19.769Z,20.68
2018-07-28T02:10:47.902Z,20.62
2018-07-28T02:13:16.028Z,20.60
2018-07-28T02:15:44.303Z,20.61
2018-07-28T02:18:12.428Z,20.53
2018-07-28T02:20:40.591Z,20.50
2018-07-28T02:23:09.130Z,20.50
2018-07-28T02:25:37.276Z,20.51
2018-07-28T02:28:05.499Z,20.49
2018-07-28T02:30:33.588Z,20.48
2018-07-28T02:33:01.713Z,20.45
2018-07-28T02:35:29.825Z,20.44
2018-07-28T02:37:57.923Z,20.46
2018-07-28T02:40:26.044Z,20.41
2018-07-28T02:42:54.184Z,20.44
2018-07-28T02:45:22.721Z,20.44
2018-07-28T02:47:50.856Z,20.42
2018-07-28T02:50:18.937Z,20.42
2018-07-28T02:52:47.070Z,20.40
2018-07-28T02:55:15.223Z,20.35
2018-07-28T02:57:43.357Z,20.30
2018-07-28T03:00:11.473Z,20.28
2018-07-28T03:02:39.592Z,20.31
2018-07-28T03:05:08.351Z,20.36
2018-07-28T03:07:36.508Z,20.37
2018-07-28T03:10:05.050Z,20.31
2018-07-28T03:12:33.124Z,20.29
2018-07-28T03:15:02.724Z,20.24
2018-07-28T03:17:30.877Z,20.22
2018-07-28T03:19:59.026Z,20.18
2018-07-28T03:22:27.181Z,20.20
2018-07-28T03:24:55.320Z,20.17
2018-07-28T03:27:23.421Z,20.18
2018-07-28T03:29:51.535Z,20.15
2018-07-28T03:32:19.654Z,20.15
2018-07-28T03:34:47.802Z,20.16
2018-07-28T03:37:15.962Z,20.11
2018-07-28T03:39:44.085Z,20.11
2018-07-28T03:42:12.250Z,20.12
2018-07-28T03:44:40.439Z,20.12
2018-07-28T03:47:08.612Z,20.09
2018-07-28T03:49:36.747Z,20.09
2018-07-28T03:52:04.908Z,20.13
2018-07-28T03:54:33.022Z,20.16
2018-07-28T03:57:01.134Z,20.23
2018-07-28T03:59:29.268Z,20.14
2018-07-28T04:01:57.459Z,20.17
2018-07-28T04:04:25.661Z,20.09
2018-07-28T04:06:53.814Z,20.09
2018-07-28T04:09:21.937Z,20.15
2018-07-28T04:11:50.109Z,20.22
2018-07-28T04:14:18.354Z,20.33
2018-07-28T04:16:46.440Z,20.45
2018-07-28T04:19:14.606Z,20.54
2018-07-28T04:21:42.795Z,20.59
2018-07-28T04:24:10.978Z,20.65
2018-07-28T04:26:39.139Z,20.74
2018-07-28T04:29:07.296Z,20.82
2018-07-28T04:31:35.464Z,20.81
2018-07-28T04:34:03.709Z,20.84
2018-07-28T04:36:31.891Z,20.87
2018-07-28T04:39:00.102Z,20.93
2018-07-28T04:41:28.245Z,20.92
2018-07-28T04:43:56.417Z,20.95
2018-07-28T04:46:24.601Z,21.02
2018-07-28T04:48:52.741Z,21.05
2018-07-28T04:51:20.868Z,20.96
2018-07-28T04:53:49.030Z,21.02
2018-07-28T04:56:17.182Z,21.02
2018-07-28T04:58:45.371Z,21.12
2018-07-28T05:01:13.529Z,21.33
2018-07-28T05:03:41.637Z,21.70
2018-07-28T05:06:09.801Z,22.24
2018-07-28T05:08:37.975Z,23.21
2018-07-28T05:11:06.125Z,24.66
2018-07-28T05:13:34.243Z,25.87
2018-07-28T05:16:02.412Z,26.12
2018-07-28T05:18:30.530Z,25.83
2018-07-28T05:20:58.774Z,26.15
2018-07-28T05:23:26.908Z,26.92
2018-07-28T05:25:55.077Z,27.50
2018-07-28T05:28:23.243Z,27.52
2018-07-28T05:30:51.434Z,27.20
2018-07-28T05:33:19.593Z,26.19
2018-07-28T05:35:47.742Z,27.27
2018-07-28T05:38:15.906Z,27.24
2018-07-28T05:40:44.099Z,27.17
2018-07-28T05:43:12.844Z,28.17
2018-07-28T05:45:40.988Z,29.17
2018-07-28T05:48:09.188Z,28.74
2018-07-28T05:50:37.308Z,28.15
2018-07-28T05:53:05.695Z,28.04
2018-07-28T05:55:33.783Z,28.82
2018-07-28T05:58:01.899Z,28.43
2018-07-28T06:00:30.024Z,28.58
2018-07-28T06:02:58.173Z,28.61
2018-07-28T06:05:26.299Z,28.22
2018-07-28T06:07:54.460Z,28.42
2018-07-28T06:10:22.599Z,28.61
2018-07-28T06:12:50.759Z,28.44
2018-07-28T06:15:18.904Z,28.69
2018-07-28T06:17:47.076Z,28.35
2018-07-28T06:20:15.268Z,27.25
2018-07-28T06:22:43.373Z,28.11
2018-07-28T06:25:11.534Z,28.46
2018-07-28T06:27:39.657Z,27.92
2018-07-28T06:30:09.069Z,27.30
2018-07-28T06:32:37.300Z,27.40
2018-07-28T06:35:05.435Z,27.34
2018-07-28T06:37:33.534Z,28.34
2018-07-28T06:40:01.695Z,29.16
2018-07-28T06:42:29.909Z,29.42
2018-07-28T06:44:58.064Z,29.18
2018-07-28T06:47:26.229Z,28.76
2018-07-28T06:49:54.383Z,29.18
2018-07-28T06:52:22.569Z,28.81
2018-07-28T06:54:50.724Z,28.56
2018-07-28T06:57:18.852Z,28.91
2018-07-28T06:59:46.971Z,29.73
2018-07-28T07:02:15.121Z,29.64
2018-07-28T07:04:43.283Z,29.42
2018-07-28T07:07:11.914Z,29.58
2018-07-28T07:09:40.012Z,30.78
2018-07-28T07:12:08.105Z,30.76
2018-07-28T07:14:36.317Z,30.19
2018-07-28T07:17:04.504Z,29.93
2018-07-28T07:19:32.653Z,29.41
2018-07-28T07:22:00.788Z,29.53
2018-07-28T07:24:28.887Z,29.85
2018-07-28T07:26:56.980Z,29.81
2018-07-28T07:29:25.109Z,31.25
2018-07-28T07:31:53.252Z,31.82
2018-07-28T07:34:21.355Z,30.90
2018-07-28T07:36:49.468Z,30.49
2018-07-28T07:39:18.394Z,29.97
2018-07-28T07:41:46.548Z,29.52
2018-07-28T07:44:14.649Z,29.34
2018-07-28T07:46:42.723Z,30.06
2018-07-28T07:49:10.857Z,29.35
2018-07-28T07:51:38.932Z,29.41
2018-07-28T07:54:07.065Z,29.06
2018-07-28T07:56:35.147Z,28.64
2018-07-28T07:59:03.658Z,29.11
2018-07-28T08:01:31.740Z,30.14
2018-07-28T08:03:59.853Z,30.21
2018-07-28T08:06:28.000Z,30.86
2018-07-28T08:08:56.121Z,30.75
2018-07-28T08:11:24.375Z,30.52
2018-07-28T08:13:52.489Z,29.73
2018-07-28T08:16:20.628Z,29.08
2018-07-28T08:18:48.812Z,29.28
2018-07-28T08:21:16.957Z,30.67
2018-07-28T08:23:45.086Z,31.52
2018-07-28T08:26:13.256Z,30.63
2018-07-28T08:28:41.381Z,29.84
2018-07-28T08:31:09.573Z,29.54
2018-07-28T08:33:37.696Z,29.33
2018-07-28T08:36:05.900Z,29.98
2018-07-28T08:38:34.077Z,29.87
2018-07-28T08:41:02.256Z,30.11
2018-07-28T08:43:30.335Z,30.85
2018-07-28T08:45:58.434Z,30.02
2018-07-28T08:48:26.571Z,29.50
2018-07-28T08:50:54.667Z,30.19
2018-07-28T08:53:22.788Z,30.72
2018-07-28T08:55:50.909Z,30.72
2018-07-28T08:58:19.022Z,30.91
2018-07-28T09:00:47.138Z,30.22
2018-07-28T09:03:15.239Z,30.29
2018-07-28T09:05:43.361Z,30.00
2018-07-28T09:08:11.482Z,31.20
2018-07-28T09:10:39.721Z,31.02
2018-07-28T09:13:08.111Z,30.78
2018-07-28T09:15:36.209Z,30.52
2018-07-28T09:18:04.378Z,30.75
2018-07-28T09:20:32.459Z,31.18
2018-07-28T09:23:00.627Z,30.96
2018-07-28T09:25:28.778Z,30.60
2018-07-28T09:27:56.899Z,30.60
2018-07-28T09:30:24.986Z,30.31
2018-07-28T09:32:53.053Z,30.40
2018-07-28T09:35:21.160Z,30.22
2018-07-28T09:37:49.380Z,30.10
2018-07-28T09:40:17.408Z,30.55
2018-07-28T09:42:45.512Z,30.24
2018-07-28T09:45:13.678Z,30.34
2018-07-28T09:47:41.850Z,30.07
2018-07-28T09:50:09.932Z,30.22
2018-07-28T09:52:38.056Z,30.66
2018-07-28T09:55:06.188Z,30.68
2018-07-28T09:57:34.298Z,30.83
2018-07-28T10:00:02.346Z,31.24
2018-07-28T10:02:30.471Z,31.35
2018-07-28T10:04:58.586Z,31.59
2018-07-28T10:07:26.688Z,31.72
2018-07-28T10:09:55.122Z,31.24
2018-07-28T10:12:23.227Z,30.88
2018-07-28T10:14:53.620Z,30.87
2018-07-28T10:17:21.849Z,30.82
2018-07-28T10:19:50.009Z,30.79
2018-07-28T10:22:18.162Z,30.78
2018-07-28T10:24:46.372Z,30.99
2018-07-28T10:27:15.304Z,30.98
2018-07-28T10:29:43.574Z,31.02
2018-07-28T10:32:11.771Z,30.69
2018-07-28T10:34:39.914Z,30.18
2018-07-28T10:37:08.147Z,30.05
2018-07-28T10:39:36.286Z,30.24
2018-07-28T10:42:04.446Z,30.34
2018-07-28T10:44:32.649Z,30.46
2018-07-28T10:47:00.774Z,30.59
2018-07-28T10:49:28.917Z,30.76
2018-07-28T10:51:57.119Z,31.12
2018-07-28T10:54:25.246Z,31.25
2018-07-28T10:56:53.372Z,31.06
2018-07-28T10:59:21.488Z,30.93
2018-07-28T11:01:49.596Z,31.35
2018-07-28T11:04:17.734Z,31.76
2018-07-28T11:06:45.853Z,31.40
2018-07-28T11:09:13.985Z,31.56
2018-07-28T11:11:42.112Z,31.71
2018-07-28T11:14:10.302Z,32.07
2018-07-28T11:16:38.445Z,31.90
2018-07-28T11:19:06.663Z,31.61
2018-07-28T11:21:34.692Z,31.34
2018-07-28T11:24:03.095Z,31.56
2018-07-28T11:26:31.248Z,31.79
2018-07-28T11:28:59.324Z,31.85
2018-07-28T11:31:38.916Z,31.67
2018-07-28T11:34:56.086Z,32.08
2018-07-28T11:37:35.519Z,32.18
2018-07-28T11:40:15.117Z,32.07
2018-07-28T11:42:54.635Z,32.42
2018-07-28T11:45:22.800Z,32.17
2018-07-28T11:47:50.928Z,31.56
2018-07-28T11:50:19.095Z,31.45
2018-07-28T11:52:47.200Z,31.40
2018-07-28T11:55:15.377Z,31.58
2018-07-28T11:57:43.463Z,31.94
2018-07-28T12:00:11.672Z,32.43
2018-07-28T12:02:40.259Z,32.64
2018-07-28T12:05:08.751Z,32.20
2018-07-28T12:07:36.867Z,31.92
2018-07-28T12:10:06.835Z,32.12
2018-07-28T12:12:34.969Z,32.18
2018-07-28T12:15:03.143Z,31.89
2018-07-28T12:17:31.285Z,31.56
2018-07-28T12:19:59.418Z,31.55
2018-07-28T12:22:27.538Z,31.62
2018-07-28T12:24:55.628Z,31.42
2018-07-28T12:27:23.727Z,31.68
2018-07-28T12:29:51.855Z,31.96
2018-07-28T12:32:20.081Z,32.04
2018-07-28T12:34:48.256Z,32.25
2018-07-28T12:37:16.361Z,32.56
2018-07-28T12:39:44.513Z,32.68
2018-07-28T12:42:12.644Z,32.43
2018-07-28T12:44:40.810Z,32.48
2018-07-28T12:47:08.936Z,32.38
2018-07-28T12:49:37.176Z,32.14
2018-07-28T12:52:05.244Z,31.75
2018-07-28T12:54:33.337Z,31.73
2018-07-28T12:57:01.482Z,31.85
2018-07-28T12:59:29.652Z,31.88
2018-07-28T13:01:57.774Z,31.94
2018-07-28T13:04:26.006Z,31.84
2018-07-28T13:06:54.151Z,32.22
2018-07-28T13:09:22.281Z,32.48
2018-07-28T13:11:50.412Z,32.75
2018-07-28T13:14:18.573Z,32.47
2018-07-28T13:16:46.903Z,32.18
2018-07-28T13:19:15.039Z,32.18
2018-07-28T13:21:43.192Z,32.12
2018-07-28T13:24:11.301Z,32.22
2018-07-28T13:26:39.445Z,32.54
2018-07-28T13:29:07.591Z,32.85
2018-07-28T13:31:35.725Z,32.84
2018-07-28T13:34:03.802Z,32.45
2018-07-28T13:36:31.903Z,32.34
2018-07-28T13:39:00.076Z,32.39
2018-07-28T13:41:28.208Z,32.13
2018-07-28T13:43:56.392Z,31.90
2018-07-28T13:46:24.566Z,31.78
2018-07-28T13:48:52.690Z,31.77
2018-07-28T13:51:20.807Z,31.51
2018-07-28T13:53:48.980Z,31.41
2018-07-28T13:56:17.154Z,31.39
2018-07-28T13:58:45.300Z,31.15
2018-07-28T14:01:13.436Z,29.50
2018-07-28T14:03:41.602Z,28.83
2018-07-28T14:06:10.185Z,27.89
2018-07-28T14:08:38.207Z,27.16
2018-07-28T14:11:06.529Z,26.70
2018-07-28T14:13:34.636Z,26.53
2018-07-28T14:16:02.749Z,26.27
2018-07-28T14:18:31.130Z,25.73
2018-07-28T14:20:59.149Z,25.73
2018-07-28T14:23:27.417Z,25.35
2018-07-28T14:25:55.543Z,25.02
2018-07-28T14:28:23.689Z,24.68
2018-07-28T14:30:52.195Z,24.32
2018-07-28T14:33:20.351Z,23.88
2018-07-28T14:35:48.566Z,23.80
2018-07-28T14:38:16.761Z,23.59
2018-07-28T14:40:44.894Z,23.47
2018-07-28T14:43:14.244Z,23.36
2018-07-28T14:45:51.706Z,23.35
2018-07-28T14:48:19.968Z,23.43
2018-07-28T14:50:48.182Z,23.20
2018-07-28T14:53:16.347Z,22.88
2018-07-28T14:55:44.527Z,22.95
2018-07-28T14:58:12.669Z,22.68
2018-07-28T15:00:40.836Z,22.59
2018-07-28T15:03:09.751Z,22.19
2018-07-28T15:05:38.152Z,22.11
2018-07-28T15:08:06.348Z,22.22
2018-07-28T15:10:34.543Z,22.22
2018-07-28T15:13:02.720Z,21.93
2018-07-28T15:15:30.926Z,21.88
2018-07-28T15:17:59.139Z,21.75
2018-07-28T15:20:27.377Z,21.61
2018-07-28T15:22:55.600Z,21.44
2018-07-28T15:25:23.895Z,21.38
2018-07-28T15:27:52.192Z,21.30
2018-07-28T15:30:20.486Z,21.48
2018-07-28T15:32:48.786Z,21.53
2018-07-28T15:35:17.095Z,21.57
2018-07-28T15:37:45.936Z,21.46
2018-07-28T15:40:14.109Z,21.48
2018-07-28T15:42:42.280Z,21.19
2018-07-28T15:45:10.427Z,21.09
2018-07-28T15:47:38.685Z,21.01
2018-07-28T15:50:06.965Z,21.15
2018-07-28T15:52:35.191Z,21.22
2018-07-28T15:55:03.377Z,20.98
2018-07-28T15:57:31.463Z,20.89
2018-07-28T15:59:59.655Z,20.86
2018-07-28T16:02:27.823Z,20.89
2018-07-28T16:04:56.172Z,21.06
2018-07-28T16:07:24.293Z,20.93
2018-07-28T16:09:52.434Z,20.93
2018-07-28T16:12:20.629Z,21.04
2018-07-28T16:14:48.869Z,21.25
2018-07-28T16:17:16.978Z,21.30
2018-07-28T16:19:45.186Z,21.19
2018-07-28T16:22:13.346Z,21.23
2018-07-28T16:24:41.530Z,21.31
2018-07-28T16:27:09.729Z,21.43
2018-07-28T16:29:37.964Z,21.42
2018-07-28T16:32:06.206Z,21.43
2018-07-28T16:34:34.553Z,21.50
2018-07-28T16:37:02.761Z,21.50
2018-07-28T16:39:30.996Z,21.52
2018-07-28T16:41:59.295Z,21.54
2018-07-28T16:44:28.330Z,21.67
2018-07-28T16:46:56.487Z,21.64
2018-07-28T16:49:24.751Z,21.62
2018-07-28T16:51:52.950Z,21.62
2018-07-28T16:54:21.166Z,21.51
2018-07-28T16:56:49.359Z,21.59
2018-07-28T16:59:17.619Z,21.49
2018-07-28T17:01:45.824Z,21.40
2018-07-28T17:04:14.013Z,21.54
2018-07-28T17:06:42.230Z,21.34
2018-07-28T17:09:12.189Z,21.32
2018-07-28T17:11:40.874Z,21.35
2018-07-28T17:14:09.296Z,21.37
2018-07-28T17:16:37.535Z,21.27
2018-07-28T17:19:05.887Z,21.02
2018-07-28T17:21:34.115Z,21.33
2018-07-28T17:24:02.608Z,21.14
2018-07-28T17:26:30.824Z,21.26
2018-07-28T17:28:59.257Z,21.12
2018-07-28T17:31:27.432Z,21.17
2018-07-28T17:33:55.780Z,21.22
2018-07-28T17:36:23.934Z,21.15
2018-07-28T17:38:52.200Z,21.04
2018-07-28T17:41:20.372Z,20.93
2018-07-28T17:43:48.543Z,21.03
2018-07-28T17:46:16.710Z,20.82
2018-07-28T17:48:44.792Z,20.91
2018-07-28T17:51:13.095Z,21.07
2018-07-28T17:53:41.251Z,21.06
2018-07-28T17:56:09.506Z,21.06
2018-07-28T17:58:37.803Z,21.03
2018-07-28T18:01:06.149Z,20.96
2018-07-28T18:03:34.368Z,21.00
2018-07-28T18:06:02.539Z,21.07
2018-07-28T18:08:30.673Z,20.92
2018-07-28T18:10:58.841Z,20.84
2018-07-28T18:13:27.150Z,20.83
2018-07-28T18:15:55.199Z,20.78
2018-07-28T18:18:23.434Z,20.61
2018-07-28T18:20:51.645Z,20.78
2018-07-28T18:23:19.814Z,20.87
2018-07-28T18:25:48.025Z,20.83
2018-07-28T18:28:16.169Z,20.72
2018-07-28T18:30:44.371Z,20.80
2018-07-28T18:33:12.447Z,20.79
2018-07-28T18:35:40.611Z,20.78
2018-07-28T18:38:08.771Z,20.69
2018-07-28T18:40:36.930Z,20.79
2018-07-28T18:43:06.043Z,20.87
2018-07-28T18:45:34.191Z,20.84
2018-07-28T18:48:02.332Z,20.79
2018-07-28T18:50:30.495Z,20.79
2018-07-28T18:52:58.625Z,20.78
2018-07-28T18:55:26.775Z,20.67
2018-07-28T18:57:54.924Z,20.63
2018-07-28T19:00:23.072Z,20.64
2018-07-28T19:02:51.188Z,20.67
2018-07-28T19:05:19.329Z,20.62
2018-07-28T19:07:47.476Z,20.52
2018-07-28T19:10:15.615Z,20.49
2018-07-28T19:12:49.136Z,20.44
2018-07-28T19:15:17.251Z,20.39
2018-07-28T19:17:50.648Z,20.33
2018-07-28T19:20:18.772Z,20.33
2018-07-28T19:22:52.236Z,20.36
2018-07-28T19:25:20.381Z,20.33
2018-07-28T19:27:53.797Z,20.36
2018-07-28T19:30:21.960Z,20.39
2018-07-28T19:32:50.056Z,20.30
2018-07-28T19:35:18.176Z,20.18
2018-07-28T19:37:46.327Z,20.16
2018-07-28T19:40:14.472Z,20.17
2018-07-28T19:42:48.081Z,20.11
2018-07-28T19:45:16.166Z,20.13
2018-07-28T19:47:44.277Z,20.12
2018-07-28T19:50:12.387Z,20.09
2018-07-28T19:52:40.553Z,20.15
2018-07-28T19:55:08.730Z,20.17
2018-07-28T19:57:36.884Z,20.20
2018-07-28T20:00:05.480Z,20.44
2018-07-28T20:02:33.609Z,20.48
2018-07-28T20:05:01.722Z,20.08
2018-07-28T20:07:29.980Z,20.09
2018-07-28T20:09:58.051Z,20.14
2018-07-28T20:12:26.172Z,20.17
2018-07-28T20:14:54.376Z,20.24
2018-07-28T20:17:22.583Z,20.25
2018-07-28T20:19:50.816Z,20.26
2018-07-28T20:22:18.907Z,20.29
2018-07-28T20:24:47.151Z,20.29
2018-07-28T20:27:15.423Z,20.27
2018-07-28T20:29:43.566Z,20.31
2018-07-28T20:32:11.823Z,20.30
2018-07-28T20:34:39.910Z,20.27
2018-07-28T20:37:08.047Z,20.21
2018-07-28T20:39:36.169Z,20.27
2018-07-28T20:42:04.694Z,20.24
2018-07-28T20:44:32.912Z,20.22
2018-07-28T20:47:01.121Z,20.21
2018-07-28T20:49:29.316Z,20.21
2018-07-28T20:51:57.486Z,20.20
2018-07-28T20:54:25.644Z,20.23
2018-07-28T20:56:53.811Z,20.17
2018-07-28T20:59:21.960Z,20.17
2018-07-28T21:01:50.062Z,20.15
2018-07-28T21:04:18.206Z,20.19
2018-07-28T21:06:46.368Z,20.23
2018-07-28T21:09:14.549Z,20.27
2018-07-28T21:11:42.657Z,20.30
2018-07-28T21:14:10.798Z,20.24
2018-07-28T21:16:38.947Z,20.28
2018-07-28T21:19:07.060Z,20.23
2018-07-28T21:21:35.153Z,20.07
2018-07-28T21:24:03.345Z,20.01
2018-07-28T21:26:31.453Z,20.00
2018-07-28T21:28:59.617Z,19.86
2018-07-28T21:31:27.743Z,19.85
2018-07-28T21:33:55.923Z,19.71
2018-07-28T21:36:24.058Z,19.66
2018-07-28T21:38:52.254Z,19.63
2018-07-28T21:41:20.433Z,19.63
2018-07-28T21:43:48.681Z,19.62
2018-07-28T21:46:16.851Z,19.56
2018-07-28T21:48:45.032Z,19.53
2018-07-28T21:51:13.204Z,19.53
2018-07-28T21:53:41.361Z,19.55
2018-07-28T21:56:09.540Z,19.47
2018-07-28T21:58:37.713Z,19.38
2018-07-28T22:01:11.380Z,19.15
2018-07-28T22:03:39.561Z,19.14
2018-07-28T22:06:07.746Z,19.13
2018-07-28T22:08:35.876Z,19.17
2018-07-28T22:11:04.055Z,19.09
2018-07-28T22:13:32.190Z,18.89
2018-07-28T22:16:00.331Z,18.89
2018-07-28T22:18:28.536Z,18.85
2018-07-28T22:20:56.671Z,18.71
2018-07-28T22:23:24.903Z,18.81
2018-07-28T22:25:53.039Z,18.80
2018-07-28T22:28:21.184Z,18.80
2018-07-28T22:30:49.294Z,18.87
2018-07-28T22:33:17.434Z,18.90
2018-07-28T22:35:45.545Z,18.91
2018-07-28T22:38:13.643Z,18.91
2018-07-28T22:40:41.813Z,18.86
2018-07-28T22:43:10.179Z,18.89
2018-07-28T22:45:38.291Z,18.96
2018-07-28T22:48:06.426Z,18.93
2018-07-28T22:50:34.514Z,18.95
2018-07-28T22:53:02.657Z,19.01
2018-07-28T22:55:30.790Z,19.05
2018-07-28T22:57:58.914Z,19.09
2018-07-28T23:00:27.028Z,19.06
2018-07-28T23:02:55.212Z,19.05
2018-07-28T23:05:23.394Z,19.08
2018-07-28T23:07:51.650Z,19.18
2018-07-28T23:10:19.805Z,19.06
2018-07-28T23:12:48.040Z,18.97
2018-07-28T23:15:16.167Z,18.86
2018-07-28T23:17:44.510Z,18.91
2018-07-28T23:20:12.645Z,18.97
2018-07-28T23:22:40.792Z,18.94
2018-07-28T23:25:09.090Z,18.86
2018-07-28T23:27:37.207Z,18.89
2018-07-28T23:30:08.026Z,18.83
2018-07-28T23:32:36.121Z,18.82
2018-07-28T23:35:04.273Z,18.85
2018-07-28T23:37:32.364Z,18.92
2018-07-28T23:40:00.468Z,18.84
2018-07-28T23:42:28.609Z,18.84
2018-07-28T23:44:56.707Z,18.65
2018-07-28T23:47:24.830Z,18.54
2018-07-28T23:49:52.985Z,18.46
2018-07-28T23:52:21.124Z,18.44
2018-07-28T23:54:49.235Z,18.36
2018-07-28T23:57:17.336Z,18.23
2018-07-28T23:59:45.462Z,18.21
